George Allen — WDF9749 — position and weather

sailwx.info

Track history (hours):
 
Tides and Currents Weather Stations Pressure Air Temp Water Temp Dewpoint Dewpoint Depression Visibility Wind Speed Wind Dir Waves Ship Positions

George Allen

Owner: Blessey Enterprises, Inc., Harahan, LA. More information available from US FCC via Universal Licensing System and Coast Guard Vessel Documentation Center.

Last reported at 2017-Jan-11 17:30 UTC. Time now 2017-Jan-18 16:13 UTC.
Position N 29°28' W 094°51'.

Length 23 m; draft 3.5 m.

Type: Towing. MMSI: 367508440.

Date/timePositionNaut miles runAvg speedWind from/ knotsBaromVisibWave heightAir tempDewpointWater temp
2017-Jan-11 17:30N 29°28' W 094°51'7 7.1
2017-Jan-11 16:33N 29°34' W 094°55'6 5.7
2017-Jan-11 15:33N 29°37' W 095°01'1 0.5
2017-Jan-11 14:33N 29°37' W 095°01'0 0.0
2017-Jan-11 13:33N 29°37' W 095°01'0 0.0
2017-Jan-11 12:33N 29°37' W 095°01'0 0.0
2017-Jan-11 11:33N 29°37' W 095°01'0 0.0
2017-Jan-11 10:33N 29°37' W 095°01'0 0.0
2017-Jan-11 09:33N 29°37' W 095°01'0 0.0
2017-Jan-11 08:33N 29°37' W 095°01'0 0.0
2017-Jan-11 07:33N 29°37' W 095°01'0 0.0
2017-Jan-11 06:33N 29°37' W 095°01'0 0.0
2017-Jan-11 05:33N 29°37' W 095°01'0 0.0
2017-Jan-11 04:33N 29°37' W 095°01'0 0.0
2017-Jan-11 03:33N 29°37' W 095°01'0 0.0
2017-Jan-11 02:33N 29°37' W 095°01'0 0.0
2017-Jan-11 01:33N 29°37' W 095°01'0 0.0
2017-Jan-11 00:21N 29°37' W 095°02'0 0.0
2017-Jan-10 23:33N 29°37' W 095°02'0 0.0
2017-Jan-10 22:33N 29°37' W 095°02'0 0.0
2017-Jan-10 21:33N 29°37' W 095°02'0 0.0
2017-Jan-10 20:33N 29°37' W 095°02'0 0.0
2017-Jan-10 19:33N 29°37' W 095°02'0 0.0
2017-Jan-10 18:33N 29°37' W 095°02'0 0.0
2017-Jan-10 17:33N 29°37' W 095°02'0 0.0
2017-Jan-10 16:33N 29°37' W 095°02'0 0.0
2017-Jan-10 15:33N 29°37' W 095°02'0 0.0
2017-Jan-10 14:33N 29°37' W 095°01'0 0.0
2017-Jan-10 13:33N 29°37' W 095°01'0 0.0
2017-Jan-10 12:33N 29°37' W 095°01'0 0.1
2017-Jan-10 11:33N 29°37' W 095°01'0 0.0
2017-Jan-10 10:33N 29°37' W 095°01'0 0.0
2017-Jan-10 09:34N 29°37' W 095°01'3 3.3
2017-Jan-10 08:33N 29°38' W 094°58'7 6.3
2017-Jan-10 07:25N 29°44' W 095°02'3 3.9
2017-Jan-10 06:31N 29°47' W 095°05'0 0.0
2017-Jan-10 05:32N 29°47' W 095°05'0 0.0
2017-Jan-10 04:29N 29°47' W 095°05'0 0.0
2017-Jan-10 03:31N 29°47' W 095°05'0 0.0
2017-Jan-10 02:19N 29°47' W 095°05'0 0.0
2017-Jan-10 01:28N 29°47' W 095°05'0 0.0
2017-Jan-10 00:33N 29°47' W 095°05'0 0.0
2017-Jan-09 23:33N 29°47' W 095°05'0 0.0
2017-Jan-09 22:33N 29°47' W 095°05'0 0.0
2017-Jan-09 21:33N 29°47' W 095°05'0 0.0
2017-Jan-09 20:33N 29°47' W 095°05'0 0.0
2017-Jan-09 19:33N 29°47' W 095°05'0 0.0
2017-Jan-09 18:33N 29°47' W 095°05'0 0.0
2017-Jan-09 17:33N 29°47' W 095°05'0 0.0
2017-Jan-09 16:33N 29°47' W 095°05'0 0.0
2017-Jan-09 15:33N 29°47' W 095°05'0 0.0
2017-Jan-09 14:33N 29°47' W 095°05'0 0.0
2017-Jan-09 13:33N 29°47' W 095°05'0 0.0
2017-Jan-09 12:32N 29°47' W 095°05'0 0.0
2017-Jan-09 11:34N 29°47' W 095°05'0 0.0
2017-Jan-09 10:33N 29°47' W 095°05'0 0.0
2017-Jan-09 09:33N 29°47' W 095°05'0 0.0
2017-Jan-09 08:33N 29°47' W 095°05'0 0.0
2017-Jan-09 07:33N 29°47' W 095°05'0 0.0
2017-Jan-09 06:33N 29°47' W 095°05'0 0.0
2017-Jan-09 05:33N 29°47' W 095°05'0 0.0
2017-Jan-09 04:34N 29°47' W 095°05'0 0.0
2017-Jan-09 03:33N 29°47' W 095°05'0 0.0
2017-Jan-09 02:33N 29°47' W 095°05'0 0.0
2017-Jan-09 01:34N 29°47' W 095°05'0 0.0
2017-Jan-09 00:33N 29°47' W 095°05'0 0.0
2017-Jan-08 23:33N 29°47' W 095°05'0 0.0
2017-Jan-08 22:33N 29°47' W 095°05'0 0.0
2017-Jan-08 21:34N 29°47' W 095°05'0 0.0
2017-Jan-08 20:33N 29°47' W 095°05'0 0.0
2017-Jan-08 19:34N 29°47' W 095°05'0 0.0
2017-Jan-08 18:34N 29°47' W 095°05'0 0.0
2017-Jan-08 17:34N 29°47' W 095°05'0 0.0
2017-Jan-08 16:34N 29°47' W 095°05'0 0.0
2017-Jan-08 15:34N 29°47' W 095°05'0 0.0
2017-Jan-08 14:34N 29°47' W 095°05'0 0.0
2017-Jan-08 13:33N 29°47' W 095°05'0 0.0
2017-Jan-08 12:33N 29°47' W 095°05'0 0.0
2017-Jan-08 11:33N 29°47' W 095°05'0 0.0
2017-Jan-08 10:33N 29°47' W 095°05'0 0.0
2017-Jan-08 09:33N 29°47' W 095°05'0 0.0
2017-Jan-08 08:33N 29°47' W 095°05'0 0.0
2017-Jan-08 07:33N 29°47' W 095°05'0 0.0
2017-Jan-08 06:33N 29°47' W 095°05'0 0.0
2017-Jan-08 05:32N 29°47' W 095°05'0 0.0
2017-Jan-08 04:33N 29°47' W 095°05'0 0.0
2017-Jan-08 03:33N 29°47' W 095°05'0 0.0
2017-Jan-08 02:33N 29°47' W 095°05'0 0.0
2017-Jan-08 01:33N 29°47' W 095°05'0 0.0
2017-Jan-08 00:33N 29°47' W 095°05'0 0.0
2017-Jan-07 23:33N 29°47' W 095°05'0 0.0
2017-Jan-07 22:34N 29°47' W 095°05'0 0.0
2017-Jan-07 21:34N 29°47' W 095°05'0 0.0
2017-Jan-07 20:34N 29°47' W 095°05'0 0.0
2017-Jan-07 19:34N 29°47' W 095°05'0 0.0
2017-Jan-07 18:34N 29°47' W 095°05'0 0.0
2017-Jan-07 17:33N 29°47' W 095°05'0 0.0
2017-Jan-07 16:34N 29°47' W 095°05'0 0.0
2017-Jan-07 15:34N 29°47' W 095°05'0 0.0
2017-Jan-07 14:34N 29°47' W 095°05'0 0.0
2017-Jan-07 13:33N 29°47' W 095°05'0 0.0
2017-Jan-07 12:33N 29°47' W 095°05'0 0.0
2017-Jan-07 11:33N 29°47' W 095°05'0 0.0
2017-Jan-07 10:33N 29°47' W 095°05'0 0.0
2017-Jan-07 09:34N 29°47' W 095°05'0 0.0
2017-Jan-07 08:33N 29°47' W 095°05'0 0.0
2017-Jan-07 07:33N 29°47' W 095°05'0 0.0
2017-Jan-07 06:34N 29°47' W 095°05'0 0.0
2017-Jan-07 04:34N 29°47' W 095°05'0 0.0
2017-Jan-07 03:34N 29°47' W 095°05'0 0.0
2017-Jan-07 02:33N 29°47' W 095°05'0 0.0
2017-Jan-07 01:33N 29°47' W 095°05'0 0.0
2017-Jan-07 00:33N 29°47' W 095°05'0 0.0
2017-Jan-06 23:33N 29°47' W 095°05'0 0.0
2017-Jan-06 22:34N 29°47' W 095°05'1 0.8
2017-Jan-06 21:33N 29°47' W 095°05'0 0.0
2017-Jan-06 20:33N 29°47' W 095°05'0 0.0
2017-Jan-06 19:34N 29°47' W 095°05'0 0.0
2017-Jan-06 18:33N 29°47' W 095°05'0 0.0
2017-Jan-06 17:33N 29°47' W 095°05'0 0.0
2017-Jan-06 16:33N 29°47' W 095°05'0 0.0
2017-Jan-06 15:34N 29°47' W 095°05'0 0.0
2017-Jan-06 14:34N 29°47' W 095°05'0 0.0
2017-Jan-06 13:30N 29°47' W 095°05'0 0.0
2017-Jan-06 12:31N 29°47' W 095°05'1 0.7
2017-Jan-06 11:30N 29°47' W 095°05'0 0.2
2017-Jan-06 10:33N 29°47' W 095°05'0 0.0
2017-Jan-06 09:32N 29°47' W 095°05'0 0.0
2017-Jan-06 08:32N 29°47' W 095°05'0 0.0
2017-Jan-06 07:34N 29°47' W 095°05'0 0.0
2017-Jan-06 06:33N 29°47' W 095°05'0 0.0
2017-Jan-06 05:33N 29°47' W 095°05'0 0.0
2017-Jan-06 04:30N 29°47' W 095°05'0 0.0
2017-Jan-06 03:33N 29°47' W 095°05'0 0.0
2017-Jan-06 02:33N 29°47' W 095°05'0 0.0
2017-Jan-06 01:30N 29°47' W 095°05'0 0.0
2017-Jan-06 00:31N 29°47' W 095°05'0 0.0
2017-Jan-05 23:33N 29°47' W 095°05'1 0.9
2017-Jan-05 22:34N 29°47' W 095°05'0 0.0
2017-Jan-05 21:34N 29°47' W 095°05'0 0.0
2017-Jan-05 20:34N 29°47' W 095°05'0 0.0
2017-Jan-05 19:30N 29°47' W 095°05'0 0.0
2017-Jan-05 18:33N 29°47' W 095°05'0 0.0
2017-Jan-05 17:34N 29°47' W 095°05'0 0.0
2017-Jan-05 16:33N 29°47' W 095°05'0 0.0
2017-Jan-05 15:33N 29°47' W 095°05'0 0.0
2017-Jan-05 14:34N 29°47' W 095°05'0 0.0
2017-Jan-05 13:33N 29°47' W 095°05'3 1.6
2017-Jan-05 11:26N 29°44' W 095°07'5 4.7
2017-Jan-05 10:19N 29°44' W 095°13'0 0.1
2017-Jan-05 09:32N 29°44' W 095°13'0 0.0
2017-Jan-05 08:22N 29°44' W 095°13'0 0.0
2017-Jan-05 07:30N 29°44' W 095°13'0 0.0
2017-Jan-05 06:32N 29°44' W 095°13'0 0.0
2017-Jan-05 05:32N 29°44' W 095°13'0 0.0
2017-Jan-05 04:19N 29°44' W 095°13'0 0.0
2017-Jan-05 01:15N 29°44' W 095°13'0 0.0
2017-Jan-04 23:06N 29°44' W 095°13'0 0.0
2017-Jan-04 22:18N 29°44' W 095°13'0 0.0
2017-Jan-04 21:30N 29°44' W 095°13'0 0.0
2017-Jan-04 18:04N 29°44' W 095°13'0 0.0
2017-Jan-04 17:28N 29°44' W 095°13'0 0.0
2017-Jan-04 16:31N 29°44' W 095°13'0 0.0
2017-Jan-04 15:30N 29°44' W 095°13'0 0.0
2017-Jan-04 14:30N 29°44' W 095°13'0 0.0
2017-Jan-04 12:08N 29°44' W 095°13'0 0.0
2017-Jan-04 11:29N 29°44' W 095°13'0 0.0
2017-Jan-04 10:32N 29°44' W 095°13'0 0.0
2017-Jan-04 09:30N 29°44' W 095°13'0 0.0
2017-Jan-04 08:20N 29°44' W 095°13'0 0.0
2017-Jan-04 07:26N 29°44' W 095°13'0 0.0
2017-Jan-04 05:21N 29°44' W 095°13'0 0.0
2017-Jan-04 04:13N 29°44' W 095°13'3 4.2
2017-Jan-04 03:31N 29°44' W 095°09'4 4.5
2017-Jan-04 02:33N 29°46' W 095°05'1 1.2
2017-Jan-04 01:34N 29°47' W 095°05'0 0.0
2017-Jan-04 00:23N 29°47' W 095°05'0 0.2
2017-Jan-03 23:33N 29°47' W 095°05'2 2.2
2017-Jan-03 22:33N 29°45' W 095°06'1 0.6
2017-Jan-03 21:33N 29°46' W 095°06'0 0.0
2017-Jan-03 20:33N 29°46' W 095°06'1 1.4
2017-Jan-03 19:34N 29°46' W 095°05'1 1.3
2017-Jan-03 18:34N 29°47' W 095°04'0 0.0
2017-Jan-03 17:34N 29°47' W 095°04'0 0.0
2017-Jan-03 16:33N 29°47' W 095°04'0 0.0
2017-Jan-03 15:33N 29°47' W 095°04'0 0.0
2017-Jan-03 14:33N 29°47' W 095°04'0 0.0
2017-Jan-03 13:34N 29°47' W 095°04'1 0.5
2017-Jan-03 12:08N 29°47' W 095°05'0 0.4
2017-Jan-03 11:34N 29°47' W 095°05'4 3.9
2017-Jan-03 10:34N 29°44' W 095°01'5 5.2
2017-Jan-03 09:34N 29°39' W 094°58'7 6.6
2017-Jan-03 08:33N 29°33' W 094°55'7 6.9
2017-Jan-03 07:34N 29°27' W 094°51'6 5.9
2017-Jan-03 06:31N 29°22' W 094°47'4 4.5
2017-Jan-03 05:34N 29°25' W 094°43'  
Track history (hours):
 
Tides and Currents Weather Stations Pressure Air Temp Water Temp Dewpoint Dewpoint Depression Visibility Wind Speed Wind Dir Waves Ship Positions

George Allen

Owner: Blessey Enterprises, Inc., Harahan, LA. More information available from US FCC via Universal Licensing System and Coast Guard Vessel Documentation Center.

Last reported at 2017-Jan-11 17:30 UTC. Time now 2017-Jan-18 16:13 UTC.
Position N 29°28' W 094°51'.

Length 23 m; draft 3.5 m.

Type: Towing. MMSI: 367508440.

Date/timePositionNaut miles runAvg speedWind from/ knotsBaromVisibWave heightAir tempDewpointWater temp
2017-Jan-11 17:30N 29°28' W 094°51'7 7.1
2017-Jan-11 16:33N 29°34' W 094°55'6 5.7
2017-Jan-11 15:33N 29°37' W 095°01'1 0.5
2017-Jan-11 14:33N 29°37' W 095°01'0 0.0
2017-Jan-11 13:33N 29°37' W 095°01'0 0.0
2017-Jan-11 12:33N 29°37' W 095°01'0 0.0
2017-Jan-11 11:33N 29°37' W 095°01'0 0.0
2017-Jan-11 10:33N 29°37' W 095°01'0 0.0
2017-Jan-11 09:33N 29°37' W 095°01'0 0.0
2017-Jan-11 08:33N 29°37' W 095°01'0 0.0
2017-Jan-11 07:33N 29°37' W 095°01'0 0.0
2017-Jan-11 06:33N 29°37' W 095°01'0 0.0
2017-Jan-11 05:33N 29°37' W 095°01'0 0.0
2017-Jan-11 04:33N 29°37' W 095°01'0 0.0
2017-Jan-11 03:33N 29°37' W 095°01'0 0.0
2017-Jan-11 02:33N 29°37' W 095°01'0 0.0
2017-Jan-11 01:33N 29°37' W 095°01'0 0.0
2017-Jan-11 00:21N 29°37' W 095°02'0 0.0
2017-Jan-10 23:33N 29°37' W 095°02'0 0.0
2017-Jan-10 22:33N 29°37' W 095°02'0 0.0
2017-Jan-10 21:33N 29°37' W 095°02'0 0.0
2017-Jan-10 20:33N 29°37' W 095°02'0 0.0
2017-Jan-10 19:33N 29°37' W 095°02'0 0.0
2017-Jan-10 18:33N 29°37' W 095°02'0 0.0
2017-Jan-10 17:33N 29°37' W 095°02'0 0.0
2017-Jan-10 16:33N 29°37' W 095°02'0 0.0
2017-Jan-10 15:33N 29°37' W 095°02'0 0.0
2017-Jan-10 14:33N 29°37' W 095°01'0 0.0
2017-Jan-10 13:33N 29°37' W 095°01'0 0.0
2017-Jan-10 12:33N 29°37' W 095°01'0 0.1
2017-Jan-10 11:33N 29°37' W 095°01'0 0.0
2017-Jan-10 10:33N 29°37' W 095°01'0 0.0
2017-Jan-10 09:34N 29°37' W 095°01'3 3.3
2017-Jan-10 08:33N 29°38' W 094°58'7 6.3
2017-Jan-10 07:25N 29°44' W 095°02'3 3.9
2017-Jan-10 06:31N 29°47' W 095°05'0 0.0
2017-Jan-10 05:32N 29°47' W 095°05'0 0.0
2017-Jan-10 04:29N 29°47' W 095°05'0 0.0
2017-Jan-10 03:31N 29°47' W 095°05'0 0.0
2017-Jan-10 02:19N 29°47' W 095°05'0 0.0
2017-Jan-10 01:28N 29°47' W 095°05'0 0.0
2017-Jan-10 00:33N 29°47' W 095°05'0 0.0
2017-Jan-09 23:33N 29°47' W 095°05'0 0.0
2017-Jan-09 22:33N 29°47' W 095°05'0 0.0
2017-Jan-09 21:33N 29°47' W 095°05'0 0.0
2017-Jan-09 20:33N 29°47' W 095°05'0 0.0
2017-Jan-09 19:33N 29°47' W 095°05'0 0.0
2017-Jan-09 18:33N 29°47' W 095°05'0 0.0
2017-Jan-09 17:33N 29°47' W 095°05'0 0.0
2017-Jan-09 16:33N 29°47' W 095°05'0 0.0
2017-Jan-09 15:33N 29°47' W 095°05'0 0.0
2017-Jan-09 14:33N 29°47' W 095°05'0 0.0
2017-Jan-09 13:33N 29°47' W 095°05'0 0.0
2017-Jan-09 12:32N 29°47' W 095°05'0 0.0
2017-Jan-09 11:34N 29°47' W 095°05'0 0.0
2017-Jan-09 10:33N 29°47' W 095°05'0 0.0
2017-Jan-09 09:33N 29°47' W 095°05'0 0.0
2017-Jan-09 08:33N 29°47' W 095°05'0 0.0
2017-Jan-09 07:33N 29°47' W 095°05'0 0.0
2017-Jan-09 06:33N 29°47' W 095°05'0 0.0
2017-Jan-09 05:33N 29°47' W 095°05'0 0.0
2017-Jan-09 04:34N 29°47' W 095°05'0 0.0
2017-Jan-09 03:33N 29°47' W 095°05'0 0.0
2017-Jan-09 02:33N 29°47' W 095°05'0 0.0
2017-Jan-09 01:34N 29°47' W 095°05'0 0.0
2017-Jan-09 00:33N 29°47' W 095°05'0 0.0
2017-Jan-08 23:33N 29°47' W 095°05'0 0.0
2017-Jan-08 22:33N 29°47' W 095°05'0 0.0
2017-Jan-08 21:34N 29°47' W 095°05'0 0.0
2017-Jan-08 20:33N 29°47' W 095°05'0 0.0
2017-Jan-08 19:34N 29°47' W 095°05'0 0.0
2017-Jan-08 18:34N 29°47' W 095°05'0 0.0
2017-Jan-08 17:34N 29°47' W 095°05'0 0.0
2017-Jan-08 16:34N 29°47' W 095°05'0 0.0
2017-Jan-08 15:34N 29°47' W 095°05'0 0.0
2017-Jan-08 14:34N 29°47' W 095°05'0 0.0
2017-Jan-08 13:33N 29°47' W 095°05'0 0.0
2017-Jan-08 12:33N 29°47' W 095°05'0 0.0
2017-Jan-08 11:33N 29°47' W 095°05'0 0.0
2017-Jan-08 10:33N 29°47' W 095°05'0 0.0
2017-Jan-08 09:33N 29°47' W 095°05'0 0.0
2017-Jan-08 08:33N 29°47' W 095°05'0 0.0
2017-Jan-08 07:33N 29°47' W 095°05'0 0.0
2017-Jan-08 06:33N 29°47' W 095°05'0 0.0
2017-Jan-08 05:32N 29°47' W 095°05'0 0.0
2017-Jan-08 04:33N 29°47' W 095°05'0 0.0
2017-Jan-08 03:33N 29°47' W 095°05'0 0.0
2017-Jan-08 02:33N 29°47' W 095°05'0 0.0
2017-Jan-08 01:33N 29°47' W 095°05'0 0.0
2017-Jan-08 00:33N 29°47' W 095°05'0 0.0
2017-Jan-07 23:33N 29°47' W 095°05'0 0.0
2017-Jan-07 22:34N 29°47' W 095°05'0 0.0
2017-Jan-07 21:34N 29°47' W 095°05'0 0.0
2017-Jan-07 20:34N 29°47' W 095°05'0 0.0
2017-Jan-07 19:34N 29°47' W 095°05'0 0.0
2017-Jan-07 18:34N 29°47' W 095°05'0 0.0
2017-Jan-07 17:33N 29°47' W 095°05'0 0.0
2017-Jan-07 16:34N 29°47' W 095°05'0 0.0
2017-Jan-07 15:34N 29°47' W 095°05'0 0.0
2017-Jan-07 14:34N 29°47' W 095°05'0 0.0
2017-Jan-07 13:33N 29°47' W 095°05'0 0.0
2017-Jan-07 12:33N 29°47' W 095°05'0 0.0
2017-Jan-07 11:33N 29°47' W 095°05'0 0.0
2017-Jan-07 10:33N 29°47' W 095°05'0 0.0
2017-Jan-07 09:34N 29°47' W 095°05'0 0.0
2017-Jan-07 08:33N 29°47' W 095°05'0 0.0
2017-Jan-07 07:33N 29°47' W 095°05'0 0.0
2017-Jan-07 06:34N 29°47' W 095°05'0 0.0
2017-Jan-07 04:34N 29°47' W 095°05'0 0.0
2017-Jan-07 03:34N 29°47' W 095°05'0 0.0
2017-Jan-07 02:33N 29°47' W 095°05'0 0.0
2017-Jan-07 01:33N 29°47' W 095°05'0 0.0
2017-Jan-07 00:33N 29°47' W 095°05'0 0.0
2017-Jan-06 23:33N 29°47' W 095°05'0 0.0
2017-Jan-06 22:34N 29°47' W 095°05'1 0.8
2017-Jan-06 21:33N 29°47' W 095°05'0 0.0
2017-Jan-06 20:33N 29°47' W 095°05'0 0.0
2017-Jan-06 19:34N 29°47' W 095°05'0 0.0
2017-Jan-06 18:33N 29°47' W 095°05'0 0.0
2017-Jan-06 17:33N 29°47' W 095°05'0 0.0
2017-Jan-06 16:33N 29°47' W 095°05'0 0.0
2017-Jan-06 15:34N 29°47' W 095°05'0 0.0
2017-Jan-06 14:34N 29°47' W 095°05'0 0.0
2017-Jan-06 13:30N 29°47' W 095°05'0 0.0
2017-Jan-06 12:31N 29°47' W 095°05'1 0.7
2017-Jan-06 11:30N 29°47' W 095°05'0 0.2
2017-Jan-06 10:33N 29°47' W 095°05'0 0.0
2017-Jan-06 09:32N 29°47' W 095°05'0 0.0
2017-Jan-06 08:32N 29°47' W 095°05'0 0.0
2017-Jan-06 07:34N 29°47' W 095°05'0 0.0
2017-Jan-06 06:33N 29°47' W 095°05'0 0.0
2017-Jan-06 05:33N 29°47' W 095°05'0 0.0
2017-Jan-06 04:30N 29°47' W 095°05'0 0.0
2017-Jan-06 03:33N 29°47' W 095°05'0 0.0
2017-Jan-06 02:33N 29°47' W 095°05'0 0.0
2017-Jan-06 01:30N 29°47' W 095°05'0 0.0
2017-Jan-06 00:31N 29°47' W 095°05'0 0.0
2017-Jan-05 23:33N 29°47' W 095°05'1 0.9
2017-Jan-05 22:34N 29°47' W 095°05'0 0.0
2017-Jan-05 21:34N 29°47' W 095°05'0 0.0
2017-Jan-05 20:34N 29°47' W 095°05'0 0.0
2017-Jan-05 19:30N 29°47' W 095°05'0 0.0
2017-Jan-05 18:33N 29°47' W 095°05'0 0.0
2017-Jan-05 17:34N 29°47' W 095°05'0 0.0
2017-Jan-05 16:33N 29°47' W 095°05'0 0.0
2017-Jan-05 15:33N 29°47' W 095°05'0 0.0
2017-Jan-05 14:34N 29°47' W 095°05'0 0.0
2017-Jan-05 13:33N 29°47' W 095°05'3 1.6
2017-Jan-05 11:26N 29°44' W 095°07'5 4.7
2017-Jan-05 10:19N 29°44' W 095°13'0 0.1
2017-Jan-05 09:32N 29°44' W 095°13'0 0.0
2017-Jan-05 08:22N 29°44' W 095°13'0 0.0
2017-Jan-05 07:30N 29°44' W 095°13'0 0.0
2017-Jan-05 06:32N 29°44' W 095°13'0 0.0
2017-Jan-05 05:32N 29°44' W 095°13'0 0.0
2017-Jan-05 04:19N 29°44' W 095°13'0 0.0
2017-Jan-05 01:15N 29°44' W 095°13'0 0.0
2017-Jan-04 23:06N 29°44' W 095°13'0 0.0
2017-Jan-04 22:18N 29°44' W 095°13'0 0.0
2017-Jan-04 21:30N 29°44' W 095°13'0 0.0
2017-Jan-04 18:04N 29°44' W 095°13'0 0.0
2017-Jan-04 17:28N 29°44' W 095°13'0 0.0
2017-Jan-04 16:31N 29°44' W 095°13'0 0.0
2017-Jan-04 15:30N 29°44' W 095°13'0 0.0
2017-Jan-04 14:30N 29°44' W 095°13'0 0.0
2017-Jan-04 12:08N 29°44' W 095°13'0 0.0
2017-Jan-04 11:29N 29°44' W 095°13'0 0.0
2017-Jan-04 10:32N 29°44' W 095°13'0 0.0
2017-Jan-04 09:30N 29°44' W 095°13'0 0.0
2017-Jan-04 08:20N 29°44' W 095°13'0 0.0
2017-Jan-04 07:26N 29°44' W 095°13'0 0.0
2017-Jan-04 05:21N 29°44' W 095°13'0 0.0
2017-Jan-04 04:13N 29°44' W 095°13'3 4.2
2017-Jan-04 03:31N 29°44' W 095°09'4 4.5
2017-Jan-04 02:33N 29°46' W 095°05'1 1.2
2017-Jan-04 01:34N 29°47' W 095°05'0 0.0
2017-Jan-04 00:23N 29°47' W 095°05'0 0.2
2017-Jan-03 23:33N 29°47' W 095°05'2 2.2
2017-Jan-03 22:33N 29°45' W 095°06'1 0.6
2017-Jan-03 21:33N 29°46' W 095°06'0 0.0
2017-Jan-03 20:33N 29°46' W 095°06'1 1.4
2017-Jan-03 19:34N 29°46' W 095°05'1 1.3
2017-Jan-03 18:34N 29°47' W 095°04'0 0.0
2017-Jan-03 17:34N 29°47' W 095°04'0 0.0
2017-Jan-03 16:33N 29°47' W 095°04'0 0.0
2017-Jan-03 15:33N 29°47' W 095°04'0 0.0
2017-Jan-03 14:33N 29°47' W 095°04'0 0.0
2017-Jan-03 13:34N 29°47' W 095°04'1 0.5
2017-Jan-03 12:08N 29°47' W 095°05'0 0.4
2017-Jan-03 11:34N 29°47' W 095°05'4 3.9
2017-Jan-03 10:34N 29°44' W 095°01'5 5.2
2017-Jan-03 09:34N 29°39' W 094°58'7 6.6
2017-Jan-03 08:33N 29°33' W 094°55'7 6.9
2017-Jan-03 07:34N 29°27' W 094°51'6 5.9
2017-Jan-03 06:31N 29°22' W 094°47'4 4.5
2017-Jan-03 05:34N 29°25' W 094°43'  

Dump ship's entire track history